Time;durP1;ratioP1;P1;durP2;ratioP2;P2;SDS_P1;SDS_P2;PMS_P1;PMS_P2;Temp;Humidity;BMP_temperature;BMP_pressure;BME280_temperature;BME280_humidity;BME280_pressure;Samples;Min_cycle;Max_cycle;Signal;HPM_P1;HPM_P2
2023/03/30 00:03:44;;;;;;;7.57;6.88;;;;;;;6.99;91.00;99619.28;10505533;28;20467;-72
2023/03/30 00:08:48;;;;;;;7.65;7.00;;;;;;;7.08;91.19;99634.75;10488299;28;20139;-72
2023/03/30 00:13:50;;;;;;;7.80;7.10;;;;;;;6.99;90.89;99625.38;10507106;28;20527;-72
2023/03/30 00:18:52;;;;;;;8.30;7.47;;;;;;;6.81;92.27;99610.97;10506864;28;20043;-72
2023/03/30 00:23:54;;;;;;;7.80;7.10;;;;;;;7.12;91.08;99571.06;10505999;28;20045;-72
2023/03/30 00:28:56;;;;;;;7.88;7.18;;;;;;;7.03;90.61;99540.78;10505218;28;20099;-72
2023/03/30 00:33:57;;;;;;;8.23;7.32;;;;;;;6.85;92.30;99522.94;10504112;28;20082;-72
2023/03/30 00:39:00;;;;;;;7.88;7.18;;;;;;;6.79;93.49;99529.19;10505978;28;20086;-73
2023/03/30 00:44:08;;;;;;;7.90;7.20;;;;;;;6.68;94.61;99525.97;10503755;28;20489;-72
2023/03/30 00:49:11;;;;;;;8.43;7.63;;;;;;;7.05;92.56;99528.56;10485095;28;20440;-72
2023/03/30 00:54:15;;;;;;;7.32;6.63;;;;;;;7.03;92.05;99511.19;10485485;28;20048;-72
2023/03/30 00:59:17;;;;;;;8.30;7.50;;;;;;;6.85;93.72;99527.31;10485824;28;20055;-74
2023/03/30 01:04:20;;;;;;;8.02;7.32;;;;;;;6.65;95.10;99533.91;10503831;28;20041;-73
2023/03/30 01:09:22;;;;;;;8.45;7.65;;;;;;;6.50;96.66;99526.41;10503208;28;20044;-73
2023/03/30 01:14:24;;;;;;;7.55;6.85;;;;;;;6.69;95.59;99500.75;10485328;28;20399;-72
2023/03/30 01:20:02;;;;;;;8.00;7.25;;;;;;;6.86;93.87;99467.19;10505432;28;20044;-73
2023/03/30 01:25:28;;;;;;;9.30;8.43;;;;;;;7.05;92.72;99444.06;10503219;28;20048;-73
2023/03/30 01:30:51;;;;;;;8.57;7.88;;;;;;;6.90;93.75;99432.25;10484969;28;20474;-73
2023/03/30 01:36:16;;;;;;;8.18;7.38;;;;;;;7.08;92.41;99433.50;10501884;28;20050;-74
2023/03/30 01:41:30;;;;;;;8.23;7.53;;;;;;;6.96;93.06;99416.44;10483819;28;20056;-73
2023/03/30 01:46:39;;;;;;;9.43;8.50;;;;;;;6.81;94.95;99414.22;10502778;28;20135;-73
2023/03/30 01:52:07;;;;;;;9.32;7.40;;;;;;;6.96;93.72;99426.88;10501427;28;20418;-73
2023/03/30 01:57:20;;;;;;;8.48;7.78;;;;;;;6.65;96.36;99420.75;10463500;28;20041;-73
2023/03/30 02:02:25;;;;;;;7.90;7.20;;;;;;;6.63;97.05;99418.16;10483388;28;20044;-73
2023/03/30 02:07:31;;;;;;;8.75;7.95;;;;;;;6.74;96.23;99426.59;10483282;28;20040;-73
2023/03/30 02:12:35;;;;;;;8.75;7.95;;;;;;;7.10;94.56;99429.13;10500920;28;20045;-73
2023/03/30 02:17:44;;;;;;;10.10;9.30;;;;;;;6.87;95.53;99401.00;10500786;28;20037;-73
2023/03/30 02:22:47;;;;;;;10.57;9.32;;;;;;;6.85;95.34;99408.00;10481356;28;20044;-72
2023/03/30 02:27:49;;;;;;;10.65;9.82;;;;;;;6.61;97.94;99400.81;10482066;28;20440;-72
2023/03/30 02:32:54;;;;;;;14.98;11.20;;;;;;;6.53;99.46;99394.03;10481668;28;20456;-72
2023/03/30 02:38:20;;;;;;;11.75;10.85;;;;;;;6.95;96.75;99382.47;10482679;28;20044;-72
2023/03/30 02:43:45;;;;;;;11.87;10.90;;;;;;;6.69;98.32;99385.81;10481255;28;20048;-72
2023/03/30 02:49:40;;;;;;;12.90;11.90;;;;;;;6.54;99.45;99379.22;10481256;28;20506;-73
2023/03/30 02:54:45;;;;;;;13.82;12.45;;;;;;;6.61;99.42;99356.44;10442476;28;20053;-70
2023/03/30 02:59:52;;;;;;;;;;;;;;;6.69;99.12;99367.53;10500069;28;20479;-70
2023/03/30 03:04:54;;;;;;;15.20;14.00;;;;;;;6.52;100.00;99352.31;10498347;28;19920;-70
2023/03/30 03:10:09;;;;;;;16.23;14.82;;;;;;;6.77;98.46;99322.03;10467492;28;20460;-70
2023/03/30 03:15:12;;;;;;;17.73;16.35;;;;;;;6.57;100.00;99306.03;10471604;28;20568;-71
2023/03/30 03:20:29;;;;;;;17.80;16.02;;;;;;;6.71;99.42;99316.09;10489177;28;20040;-71
2023/03/30 03:25:32;;;;;;;21.00;16.63;;;;;;;6.74;98.38;99316.88;10473551;28;20422;-71
2023/03/30 03:30:37;;;;;;;19.10;17.35;;;;;;;6.89;97.58;99299.91;10489920;28;20041;-71
2023/03/30 03:35:45;;;;;;;;;;;;;;;6.82;97.83;99293.16;10489317;28;20143;-71
2023/03/30 03:40:50;;;;;;;19.52;17.73;;;;;;;6.95;97.77;99272.75;10506793;28;19962;-71
2023/03/30 03:45:52;;;;;;;22.40;19.95;;;;;;;6.75;99.21;99278.56;10488630;28;20040;-71
2023/03/30 03:50:58;;;;;;;21.17;19.30;;;;;;;6.90;98.55;99290.31;10506301;28;20036;-71
2023/03/30 03:56:03;;;;;;;20.20;18.13;;;;;;;6.86;97.71;99288.69;10488432;28;20068;-70
2023/03/30 04:01:05;;;;;;;20.92;19.15;;;;;;;6.70;99.23;99293.50;10487731;28;20075;-70
2023/03/30 04:06:09;;;;;;;19.98;18.23;;;;;;;6.65;98.97;99282.34;10507354;28;20044;-70
2023/03/30 04:11:14;;;;;;;19.27;17.83;;;;;;;6.70;99.04;99262.16;10472201;28;20047;-70
2023/03/30 04:16:28;;;;;;;19.15;17.63;;;;;;;6.77;98.02;99279.34;10506821;28;20509;-73
2023/03/30 04:21:51;;;;;;;19.17;17.58;;;;;;;6.72;98.39;99265.56;10462670;28;20053;-73
2023/03/30 04:27:08;;;;;;;17.98;16.45;;;;;;;6.81;98.21;99265.31;10486410;28;20056;-73
2023/03/30 04:32:24;;;;;;;18.63;17.10;;;;;;;6.61;99.94;99267.66;10486712;28;20048;-72
2023/03/30 04:37:40;;;;;;;20.45;18.65;;;;;;;6.58;99.08;99286.84;10486295;28;20048;-72
2023/03/30 04:43:01;;;;;;;18.80;17.08;;;;;;;6.50;100.00;99286.19;10503193;28;20044;-72
2023/03/30 04:48:28;;;;;;;19.10;17.35;;;;;;;6.60;99.94;99282.47;10485159;28;20055;-71
2023/03/30 04:53:59;;;;;;;19.60;17.85;;;;;;;6.32;100.00;99284.94;10485559;28;20052;-72
2023/03/30 04:59:26;;;;;;;18.35;16.85;;;;;;;6.50;100.00;99284.44;10500701;28;20044;-72
2023/03/30 05:04:42;;;;;;;18.35;16.73;;;;;;;6.45;100.00;99288.94;10486489;28;20048;-73
2023/03/30 05:10:07;;;;;;;19.45;17.75;;;;;;;6.47;100.00;99271.50;10457712;28;20080;-72
2023/03/30 05:15:28;;;;;;;19.25;17.85;;;;;;;6.34;100.00;99267.50;10503810;28;20048;-72
2023/03/30 05:20:45;;;;;;;18.48;16.67;;;;;;;6.76;100.00;99259.38;10488101;28;20091;-72
2023/03/30 05:26:22;;;;;;;18.58;16.98;;;;;;;6.55;100.00;99260.81;10403534;28;20048;-73
2023/03/30 05:31:38;;;;;;;17.13;15.68;;;;;;;6.53;100.00;99257.41;10485339;28;20076;-72
2023/03/30 05:36:59;;;;;;;18.38;16.58;;;;;;;6.51;100.00;99244.41;10501342;28;20053;-73
2023/03/30 05:42:12;;;;;;;18.10;16.33;;;;;;;6.69;100.00;99236.97;10484567;28;20067;-72
2023/03/30 05:47:53;;;;;;;17.42;15.82;;;;;;;7.03;99.77;99223.72;10331659;28;20042;-73
2023/03/30 05:53:15;;;;;;;16.15;14.93;;;;;;;7.02;100.00;99227.25;10332781;28;20132;-73
2023/03/30 05:58:31;;;;;;;17.65;15.70;;;;;;;7.05;100.00;99245.47;10332551;28;20045;-73
2023/03/30 06:03:49;;;;;;;18.48;16.80;;;;;;;7.13;99.80;99245.22;10318902;28;20054;-73
2023/03/30 06:08:51;;;;;;;18.38;15.75;;;;;;;7.29;98.98;99262.16;10332463;28;20053;-73
2023/03/30 06:13:57;;;;;;;17.55;16.08;;;;;;;7.46;98.26;99251.16;10318216;28;20443;-74
2023/03/30 06:19:01;;;;;;;16.42;15.02;;;;;;;7.84;95.30;99252.56;10455294;28;20131;-74
2023/03/30 06:24:03;;;;;;;16.70;15.20;;;;;;;8.18;92.83;99246.16;10499319;28;20116;-73
2023/03/30 06:29:07;;;;;;;16.17;14.90;;;;;;;8.37;92.62;99249.03;10482320;28;20530;-73
2023/03/30 06:34:10;;;;;;;15.75;14.45;;;;;;;8.44;92.45;99234.81;10482215;28;20049;-73
2023/03/30 06:39:12;;;;;;;16.75;14.93;;;;;;;8.58;91.47;99236.00;10481881;28;20055;-72
2023/03/30 06:44:14;;;;;;;17.52;13.88;;;;;;;8.97;89.58;99231.97;10466883;28;20041;-72
2023/03/30 06:49:19;;;;;;;14.52;13.27;;;;;;;9.08;88.87;99214.94;10471471;28;20045;-73
2023/03/30 06:54:44;;;;;;;14.85;13.38;;;;;;;9.06;89.57;99211.50;10509569;28;20048;-73
2023/03/30 06:59:46;;;;;;;19.20;13.75;;;;;;;9.10;89.93;99192.13;10510591;28;20487;-72
2023/03/30 07:04:53;;;;;;;13.38;12.07;;;;;;;9.32;88.24;99191.28;10507520;28;20079;-73
2023/03/30 07:10:08;;;;;;;13.65;12.35;;;;;;;9.26;88.67;99173.19;10491158;28;20044;-73
2023/03/30 07:15:11;;;;;;;13.90;12.32;;;;;;;9.19;91.02;99166.47;10489695;28;20048;-72
2023/03/30 07:20:14;;;;;;;14.07;9.82;;;;;;;9.82;89.19;99162.94;10489036;28;20134;-73
2023/03/30 07:25:44;;;;;;;11.93;10.43;;;;;;;10.31;85.71;99155.63;10484059;28;20044;-73
2023/03/30 07:30:52;;;;;;;11.30;9.75;;;;;;;10.55;84.15;99151.00;10489760;28;20048;-72
2023/03/30 07:35:56;;;;;;;10.90;9.98;;;;;;;10.94;82.61;99139.56;10471954;28;20040;-71
2023/03/30 07:41:00;;;;;;;15.18;9.35;;;;;;;11.42;82.64;99121.47;10487265;28;20045;-71
2023/03/30 07:46:03;;;;;;;9.95;9.05;;;;;;;11.82;77.11;99117.66;10486585;28;20045;-72
2023/03/30 07:51:12;;;;;;;9.32;8.43;;;;;;;11.82;76.42;99126.47;10487834;28;20056;-72
2023/03/30 07:56:27;;;;;;;13.77;9.05;;;;;;;12.25;77.02;99137.38;10474562;28;20406;-73
2023/03/30 08:01:33;;;;;;;8.15;7.30;;;;;;;12.58;73.93;99147.06;10487672;28;20037;-73
2023/03/30 08:06:48;;;;;;;8.50;6.80;;;;;;;12.87;73.74;99125.22;10487434;28;20522;-72
2023/03/30 08:11:51;;;;;;;7.20;6.50;;;;;;;13.35;72.50;99126.06;10487400;28;20036;-72
2023/03/30 08:16:54;;;;;;;7.03;4.68;;;;;;;13.79;72.40;99111.19;10485903;28;20090;-72
2023/03/30 08:21:56;;;;;;;5.18;1.73;;;;;;;14.60;70.38;99107.06;10504586;28;20123;-73
2023/03/30 08:26:58;;;;;;;5.28;3.90;;;;;;;15.50;66.29;99110.13;10503835;28;20119;-71
2023/03/30 08:32:00;;;;;;;4.75;1.88;;;;;;;15.59;64.24;99105.06;10504676;28;20041;-73
2023/03/30 08:37:01;;;;;;;4.75;1.40;;;;;;;15.57;65.18;99114.91;10506654;28;20044;-73
2023/03/30 08:42:24;;;;;;;4.15;1.55;;;;;;;15.60;65.04;99114.69;10505375;28;20041;-73
2023/03/30 08:47:38;;;;;;;8.95;8.05;;;;;;;15.10;61.69;99126.00;10504067;28;20051;-73
2023/03/30 08:52:41;;;;;;;10.52;8.80;;;;;;;14.41;63.83;99125.03;10485788;28;20052;-72
2023/03/30 08:57:56;;;;;;;10.52;9.43;;;;;;;13.76;66.15;99119.28;10504034;28;20490;-73
2023/03/30 09:03:11;;;;;;;10.77;9.77;;;;;;;13.63;68.41;99135.00;10504518;28;20051;-73
2023/03/30 09:08:27;;;;;;;12.38;9.73;;;;;;;13.37;69.77;99150.59;10504162;28;20065;-73
2023/03/30 09:13:35;;;;;;;10.68;9.57;;;;;;;13.12;70.58;99150.25;10504236;28;20055;-74
2023/03/30 09:18:40;;;;;;;12.57;9.95;;;;;;;12.82;73.74;99160.69;10506223;28;20090;-73
2023/03/30 09:23:42;;;;;;;10.63;9.55;;;;;;;12.61;75.37;99170.63;10502703;28;20072;-73
2023/03/30 09:29:23;;;;;;;12.63;11.43;;;;;;;12.77;76.24;99186.47;10485944;28;20048;-73
2023/03/30 09:34:34;;;;;;;13.90;12.52;;;;;;;12.51;82.80;99188.72;10484646;28;20094;-73
2023/03/30 09:39:37;;;;;;;8.85;7.97;;;;;;;12.44;89.92;99192.63;10485314;28;20320;-73
2023/03/30 09:44:57;;;;;;;5.88;2.28;;;;;;;13.36;86.80;99187.59;10501236;28;20078;-73
2023/03/30 09:50:01;;;;;;;4.93;2.17;;;;;;;13.60;85.85;99182.72;10500823;28;20123;-73
2023/03/30 09:55:20;;;;;;;5.50;2.05;;;;;;;13.74;85.62;99187.22;10500287;28;20041;-73
2023/03/30 10:00:32;;;;;;;6.68;2.60;;;;;;;13.63;87.49;99183.41;10500607;28;20625;-72
2023/03/30 10:05:36;;;;;;;5.53;2.35;;;;;;;13.81;85.17;99201.75;10499643;28;20144;-73
2023/03/30 10:10:39;;;;;;;6.50;2.70;;;;;;;13.81;85.38;99202.63;10499158;28;20043;-72
2023/03/30 10:15:44;;;;;;;5.28;2.60;;;;;;;13.94;85.85;99188.66;10499685;28;20040;-73
2023/03/30 10:20:52;;;;;;;4.45;2.33;;;;;;;13.70;86.48;99177.75;10499933;28;20494;-73
2023/03/30 10:26:01;;;;;;;5.95;2.30;;;;;;;13.44;88.80;99171.34;10496765;22;20043;-72
2023/03/30 10:31:13;;;;;;;4.07;1.85;;;;;;;13.21;89.14;99147.06;10482198;28;20059;-74
2023/03/30 10:36:17;;;;;;;4.80;1.90;;;;;;;13.35;86.60;99136.59;10500447;28;20098;-73
2023/03/30 10:41:22;;;;;;;5.22;2.05;;;;;;;13.30;88.11;99127.25;10465156;28;20140;-73
2023/03/30 10:46:24;;;;;;;6.15;1.60;;;;;;;13.23;87.61;99144.38;10499728;28;20095;-72
2023/03/30 10:51:29;;;;;;;3.65;1.10;;;;;;;13.18;87.40;99159.59;10500210;28;20037;-74
2023/03/30 10:56:42;;;;;;;2.25;1.00;;;;;;;13.38;84.15;99164.63;10481659;28;20041;-72
2023/03/30 11:02:20;;;;;;;4.38;1.20;;;;;;;13.48;83.83;99151.75;10466289;28;20072;-73
2023/03/30 11:07:41;;;;;;;4.05;1.25;;;;;;;13.54;85.53;99115.25;10472109;28;20409;-74
2023/03/30 11:12:53;;;;;;;4.60;0.77;;;;;;;13.50;83.89;99132.25;10499397;28;20127;-72
2023/03/30 11:18:03;;;;;;;3.80;1.52;;;;;;;13.65;85.21;99187.75;10479939;28;20135;-74
2023/03/30 11:23:19;;;;;;;2.13;0.90;;;;;;;13.98;81.19;99198.97;10498351;28;20116;-72
2023/03/30 11:28:27;;;;;;;1.58;0.90;;;;;;;14.13;78.87;99182.22;10496396;28;20032;-72
2023/03/30 11:33:40;;;;;;;2.63;0.88;;;;;;;14.10;79.47;99186.84;10500388;28;20132;-72
2023/03/30 11:38:59;;;;;;;1.85;0.80;;;;;;;14.27;77.49;99169.97;10505411;28;20523;-73
2023/03/30 11:44:01;;;;;;;1.58;0.90;;;;;;;14.52;76.31;99164.91;10506151;28;20044;-73
2023/03/30 11:49:06;;;;;;;1.75;0.85;;;;;;;14.88;74.09;99153.81;10486585;28;20494;-73
2023/03/30 11:54:11;;;;;;;1.98;0.90;;;;;;;15.15;72.34;99155.66;10471292;28;20508;-73
2023/03/30 11:59:55;;;;;;;3.35;1.00;;;;;;;15.33;70.06;99135.91;10472633;28;20045;-73
2023/03/30 12:05:10;;;;;;;1.73;0.90;;;;;;;15.82;66.96;99123.88;10504591;28;20127;-73
2023/03/30 12:10:23;;;;;;;3.60;1.20;;;;;;;16.27;66.09;99119.03;10505371;28;20466;-73
2023/03/30 12:15:40;;;;;;;2.30;1.30;;;;;;;16.43;63.37;99094.94;10486671;28;20056;-72
2023/03/30 12:21:00;;;;;;;3.55;1.60;;;;;;;16.17;63.55;99083.50;10504574;28;20041;-73
2023/03/30 12:26:28;;;;;;;4.78;1.90;;;;;;;16.25;62.46;99067.91;10504221;28;20131;-73
2023/03/30 12:32:01;;;;;;;2.58;1.50;;;;;;;16.45;62.81;99058.53;10485619;28;20045;-73
2023/03/30 12:37:05;;;;;;;4.07;1.85;;;;;;;16.61;60.59;99040.56;10485983;28;20405;-73
2023/03/30 12:42:25;;;;;;;3.35;1.70;;;;;;;16.51;60.87;99043.03;10503582;28;20490;-73
2023/03/30 12:47:53;;;;;;;3.85;1.80;;;;;;;16.89;59.59;99044.72;10502812;28;20051;-73
2023/03/30 12:53:24;;;;;;;5.68;1.77;;;;;;;16.88;59.56;99038.56;10504330;28;20040;-74
2023/03/30 12:58:38;;;;;;;3.75;1.83;;;;;;;16.63;59.84;99030.66;10344180;28;20499;-74
2023/03/30 13:03:51;;;;;;;2.88;1.98;;;;;;;16.54;60.68;99029.53;10376479;28;20140;-73
2023/03/30 13:09:22;;;;;;;3.00;1.90;;;;;;;16.72;60.30;99013.22;10377478;28;20085;-74
2023/03/30 13:14:38;;;;;;;4.55;1.52;;;;;;;16.89;58.78;99031.47;10375360;28;20130;-75
2023/03/30 13:20:04;;;;;;;2.50;1.60;;;;;;;17.03;59.46;99027.78;10374333;28;20133;-73
2023/03/30 13:25:19;;;;;;;4.50;1.95;;;;;;;16.90;58.88;99014.56;10367862;28;20128;-75
2023/03/30 13:30:28;;;;;;;3.15;1.83;;;;;;;16.75;60.87;99010.41;10372655;28;20514;-74
2023/03/30 13:36:08;;;;;;;4.35;1.70;;;;;;;16.78;59.81;99034.91;10444619;28;20061;-74
2023/03/30 13:41:56;;;;;;;2.13;1.58;;;;;;;16.78;58.82;99023.44;10461985;28;20582;-75
2023/03/30 13:47:22;;;;;;;2.83;1.55;;;;;;;16.74;59.26;99019.31;10461361;28;20080;-74
2023/03/30 13:52:39;;;;;;;3.70;1.95;;;;;;;16.78;60.50;99029.59;10425456;28;20063;-74
2023/03/30 13:57:43;;;;;;;3.35;1.45;;;;;;;16.80;58.32;99018.88;10498306;28;20045;-74
2023/03/30 14:02:45;;;;;;;2.42;1.50;;;;;;;17.06;57.48;99011.63;10501819;28;20406;-74
2023/03/30 14:07:48;;;;;;;3.35;1.42;;;;;;;17.19;56.85;99011.56;10481843;28;20071;-75
2023/03/30 14:12:54;;;;;;;2.75;1.38;;;;;;;17.17;56.10;99006.34;10499576;28;20414;-74
2023/03/30 14:17:59;;;;;;;3.17;1.00;;;;;;;17.23;55.74;99008.56;10482346;28;20051;-75
2023/03/30 14:23:02;;;;;;;2.40;0.95;;;;;;;17.24;56.42;99015.56;10482707;28;20036;-73
2023/03/30 14:28:12;;;;;;;3.13;1.23;;;;;;;17.26;54.89;98997.69;10500114;28;20040;-73
2023/03/30 14:33:13;;;;;;;1.88;1.20;;;;;;;17.40;55.69;98989.53;10482728;28;20065;-73
2023/03/30 14:38:36;;;;;;;2.30;1.13;;;;;;;17.35;54.94;98978.41;10483052;28;20062;-73
2023/03/30 14:43:40;;;;;;;3.28;1.27;;;;;;;17.07;56.02;98970.84;10501704;28;20119;-74
2023/03/30 14:48:44;;;;;;;2.53;1.10;;;;;;;17.01;57.01;98960.69;10501003;28;20047;-74
2023/03/30 14:53:49;;;;;;;3.17;1.17;;;;;;;17.10;57.58;98963.50;10483947;28;20143;-74
2023/03/30 14:58:54;;;;;;;2.55;0.93;;;;;;;17.03;57.84;98943.66;10500963;28;20837;-73
2023/03/30 15:03:59;;;;;;;3.75;1.25;;;;;;;17.02;57.59;98965.03;10482055;28;20053;-73
2023/03/30 15:09:03;;;;;;;3.63;1.15;;;;;;;16.77;57.21;98971.31;10503066;28;20060;-75
2023/03/30 15:14:12;;;;;;;2.03;1.20;;;;;;;16.45;58.21;98978.97;10491101;28;20044;-74
2023/03/30 15:19:36;;;;;;;3.53;1.00;;;;;;;15.46;64.36;99006.19;10472663;28;20044;-74
2023/03/30 15:24:39;;;;;;;3.03;1.17;;;;;;;14.60;71.22;98960.78;10489681;28;20444;-74
2023/03/30 15:29:43;;;;;;;4.32;1.10;;;;;;;14.64;72.15;98947.25;10506889;28;20045;-75
2023/03/30 15:35:03;;;;;;;3.55;1.30;;;;;;;15.01;69.99;98950.13;10506545;28;20123;-75
2023/03/30 15:40:35;;;;;;;2.83;1.40;;;;;;;15.14;68.38;98955.44;10507066;28;20044;-74
2023/03/30 15:45:37;;;;;;;3.80;1.30;;;;;;;15.17;68.71;98992.25;10506672;28;20050;-74
2023/03/30 15:50:42;;;;;;;0.90;0.50;;;;;;;13.86;63.02;99080.84;10506583;28;20048;-74
2023/03/30 15:55:50;;;;;;;3.08;0.75;;;;;;;12.71;72.32;99105.91;10507653;28;20052;-74
2023/03/30 16:00:52;;;;;;;4.10;0.95;;;;;;;11.95;82.24;99105.59;10488131;28;20040;-74
2023/03/30 16:05:54;;;;;;;2.15;1.10;;;;;;;11.80;86.13;99106.38;10488383;28;20052;-73
2023/03/30 16:10:56;;;;;;;1.25;0.40;;;;;;;11.56;90.98;99103.22;10487124;28;20105;-72
2023/03/30 16:15:58;;;;;;;2.10;0.57;;;;;;;11.58;92.85;99111.88;10487004;28;20044;-74
2023/03/30 16:21:00;;;;;;;1.83;1.02;;;;;;;11.54;94.30;99098.00;10504263;28;20036;-74
2023/03/30 16:26:03;;;;;;;1.98;0.60;;;;;;;11.68;93.60;99081.50;10504956;28;20386;-72
2023/03/30 16:31:16;;;;;;;2.22;0.63;;;;;;;11.72;92.63;99064.63;10485772;28;20063;-72
2023/03/30 16:36:21;;;;;;;2.33;0.70;;;;;;;11.73;93.01;99078.63;10504175;28;20064;-72
2023/03/30 16:41:23;;;;;;;1.70;0.80;;;;;;;11.67;92.54;99071.91;10503205;28;20044;-72
2023/03/30 16:46:26;;;;;;;3.25;0.70;;;;;;;11.46;94.91;99086.16;10501810;28;20052;-73
2023/03/30 16:51:27;;;;;;;2.90;0.75;;;;;;;11.57;92.27;99091.75;10502473;28;20113;-72
2023/03/30 16:56:30;;;;;;;1.95;0.80;;;;;;;11.49;92.12;99088.66;10485420;28;20064;-74
2023/03/30 17:01:31;;;;;;;2.25;0.70;;;;;;;11.31;93.57;99079.91;10486497;28;20405;-72
2023/03/30 17:06:33;;;;;;;1.05;0.60;;;;;;;11.51;88.51;99090.28;10502696;28;20441;-73
2023/03/30 17:11:35;;;;;;;1.33;0.50;;;;;;;11.57;85.77;99082.06;10502289;28;20044;-73
2023/03/30 17:16:39;;;;;;;0.82;0.45;;;;;;;11.50;83.76;99101.72;10485823;28;20413;-73
2023/03/30 17:21:42;;;;;;;1.13;0.47;;;;;;;11.54;80.50;99102.44;10502849;28;20098;-74
2023/03/30 17:26:45;;;;;;;0.52;0.30;;;;;;;11.58;81.61;99103.97;10485118;28;20032;-73
2023/03/30 17:31:48;;;;;;;1.77;0.60;;;;;;;11.48;78.86;99116.75;10501242;28;20527;-73
2023/03/30 17:36:50;;;;;;;1.60;0.73;;;;;;;11.61;78.83;99117.00;10502201;28;20560;-73
2023/03/30 17:41:52;;;;;;;2.97;0.60;;;;;;;11.48;78.39;99119.38;10502814;28;20044;-73
2023/03/30 17:46:54;;;;;;;0.60;0.43;;;;;;;11.39;78.98;99116.38;10503103;28;20058;-73
2023/03/30 17:51:56;;;;;;;2.42;0.50;;;;;;;11.36;79.39;99112.09;10482995;28;20556;-73
2023/03/30 17:56:57;;;;;;;1.55;0.40;;;;;;;11.21;79.59;99105.81;10501334;28;20045;-72
2023/03/30 18:01:59;;;;;;;1.20;0.52;;;;;;;11.11;79.86;99109.81;10500423;28;20140;-74
2023/03/30 18:07:01;;;;;;;2.50;0.57;;;;;;;11.14;79.35;99103.56;10500445;28;20052;-74
2023/03/30 18:12:03;;;;;;;1.90;0.70;;;;;;;11.02;80.47;99111.13;10497204;28;20111;-74
2023/03/30 18:17:05;;;;;;;1.63;0.68;;;;;;;10.96;81.32;99113.19;10481174;28;20138;-73
2023/03/30 18:22:08;;;;;;;2.30;0.80;;;;;;;10.85;81.95;99113.72;10500885;28;20063;-73
2023/03/30 18:27:10;;;;;;;1.70;0.70;;;;;;;10.83;82.72;99118.19;10499180;28;20119;-74
2023/03/30 18:32:12;;;;;;;1.45;0.80;;;;;;;10.75;83.55;99134.31;10480710;28;20505;-74
2023/03/30 18:37:14;;;;;;;1.15;0.68;;;;;;;10.66;83.68;99136.50;10481133;28;20136;-74
2023/03/30 18:42:15;;;;;;;1.95;0.80;;;;;;;10.73;83.09;99141.44;10480827;28;20445;-74
2023/03/30 18:47:17;;;;;;;2.95;0.80;;;;;;;10.53;84.37;99144.97;10499036;28;20502;-74
2023/03/30 18:52:19;;;;;;;1.60;0.75;;;;;;;10.47;85.56;99154.91;10499138;28;20458;-74
2023/03/30 18:57:21;;;;;;;1.40;0.60;;;;;;;10.53;85.43;99165.13;10514863;28;20063;-73
2023/03/30 19:02:23;;;;;;;3.45;1.00;;;;;;;10.52;85.37;99166.06;10541092;28;20104;-73
2023/03/30 19:07:26;;;;;;;3.38;1.35;;;;;;;10.46;85.88;99163.72;10522691;28;20415;-74
2023/03/30 19:12:28;;;;;;;4.20;0.80;;;;;;;10.47;86.12;99166.25;10540809;28;20048;-74
2023/03/30 19:17:30;;;;;;;1.20;0.80;;;;;;;10.43;86.35;99176.97;10540352;28;20047;-73
2023/03/30 19:22:32;;;;;;;1.42;0.60;;;;;;;10.40;86.76;99185.84;10540169;28;20099;-74
2023/03/30 19:27:33;;;;;;;2.58;0.60;;;;;;;10.58;84.92;99190.31;10521349;28;20044;-74
2023/03/30 19:32:35;;;;;;;1.80;0.70;;;;;;;10.52;85.74;99187.06;10539619;28;20036;-74
2023/03/30 19:37:39;;;;;;;1.38;0.75;;;;;;;10.50;85.49;99199.44;10539176;28;20044;-74
2023/03/30 19:42:46;;;;;;;1.70;0.60;;;;;;;10.64;84.29;99210.19;10539207;28;20062;-74
2023/03/30 19:47:47;;;;;;;1.67;0.50;;;;;;;10.71;83.48;99206.34;10521097;28;20472;-74
2023/03/30 19:52:50;;;;;;;3.40;0.60;;;;;;;10.72;83.24;99223.00;10520753;28;20040;-73
2023/03/30 19:57:52;;;;;;;1.45;0.60;;;;;;;10.75;82.83;99218.41;10546061;28;20075;-72
2023/03/30 20:02:55;;;;;;;1.63;0.70;;;;;;;10.66;83.63;99212.72;10528708;28;20414;-75
2023/03/30 20:07:57;;;;;;;1.42;0.80;;;;;;;10.59;83.63;99220.91;10528781;28;20567;-73
2023/03/30 20:12:59;;;;;;;1.50;0.90;;;;;;;10.48;84.51;99225.78;10547362;28;20067;-74
2023/03/30 20:18:01;;;;;;;3.90;0.70;;;;;;;10.28;85.95;99231.06;10527925;28;20044;-74
2023/03/30 20:23:03;;;;;;;2.15;0.82;;;;;;;10.42;84.84;99226.06;10546963;28;20036;-74
2023/03/30 20:28:04;;;;;;;1.25;0.80;;;;;;;10.31;85.79;99226.53;10529089;28;20087;-73
2023/03/30 20:33:07;;;;;;;2.50;0.50;;;;;;;10.17;86.83;99225.38;10547262;28;20040;-74
2023/03/30 20:38:09;;;;;;;2.67;0.77;;;;;;;10.22;86.30;99226.03;10547029;28;20126;-74
2023/03/30 20:43:11;;;;;;;1.75;0.70;;;;;;;10.19;86.27;99228.81;10545711;28;20555;-74
2023/03/30 20:48:38;;;;;;;1.48;0.70;;;;;;;10.26;85.59;99227.63;10544619;28;20044;-74
2023/03/30 20:53:37;;;;;;;1.40;0.70;;;;;;;10.14;86.36;99233.38;10544637;28;20046;-75
2023/03/30 20:58:39;;;;;;;1.77;0.60;;;;;;;10.27;85.25;99243.34;10546503;28;20544;-74
2023/03/30 21:03:43;;;;;;;1.33;0.50;;;;;;;10.33;84.96;99245.69;10527445;28;20115;-74
2023/03/30 21:08:45;;;;;;;2.40;0.80;;;;;;;10.32;85.25;99237.91;10509542;28;20417;-73
2023/03/30 21:13:49;;;;;;;1.38;0.50;;;;;;;10.45;84.34;99235.59;10544038;28;20090;-72
2023/03/30 21:18:51;;;;;;;1.20;0.88;;;;;;;10.58;83.47;99240.22;10547101;28;20048;-74
2023/03/30 21:23:53;;;;;;;2.28;0.73;;;;;;;10.52;84.08;99232.59;10544047;28;20075;-74
2023/03/30 21:28:55;;;;;;;3.72;0.75;;;;;;;10.51;84.20;99230.06;10543229;28;20044;-75
2023/03/30 21:33:57;;;;;;;2.65;0.57;;;;;;;10.61;83.38;99224.31;10543635;28;20075;-73
2023/03/30 21:38:59;;;;;;;2.15;0.68;;;;;;;10.59;83.55;99223.53;10543021;28;20052;-73
2023/03/30 21:44:01;;;;;;;1.85;0.70;;;;;;;10.73;82.56;99224.69;10525138;28;20040;-74
2023/03/30 21:49:03;;;;;;;1.48;0.75;;;;;;;10.63;83.02;99228.66;10508128;28;20505;-74
2023/03/30 21:54:05;;;;;;;1.60;0.60;;;;;;;10.70;82.45;99219.56;10542276;28;20505;-74
2023/03/30 21:59:06;;;;;;;2.05;0.70;;;;;;;10.68;82.76;99216.16;10542051;28;20501;-73
2023/03/30 22:04:08;;;;;;;2.75;0.75;;;;;;;10.79;81.74;99206.00;10541968;28;20042;-74
2023/03/30 22:09:10;;;;;;;1.63;0.63;;;;;;;10.80;81.63;99207.69;10524573;28;20114;-73
2023/03/30 22:14:12;;;;;;;2.88;0.70;;;;;;;10.89;81.21;99198.53;10541386;28;20044;-73
2023/03/30 22:19:13;;;;;;;2.00;0.90;;;;;;;10.82;81.66;99193.56;10540733;28;20051;-73
2023/03/30 22:24:17;;;;;;;1.98;0.70;;;;;;;10.96;80.85;99185.03;10540990;28;20397;-73
2023/03/30 22:29:19;;;;;;;1.20;0.50;;;;;;;11.07;80.12;99177.50;10524870;22;20036;-71
2023/03/30 22:34:21;;;;;;;1.98;0.80;;;;;;;11.04;80.53;99180.28;10534700;28;20039;-72
2023/03/30 22:39:23;;;;;;;2.25;1.00;;;;;;;11.05;80.69;99176.72;10506676;28;20440;-72
2023/03/30 22:44:25;;;;;;;1.67;0.68;;;;;;;10.92;81.84;99172.97;10540558;28;20116;-71
2023/03/30 22:49:26;;;;;;;1.50;0.60;;;;;;;10.95;81.85;99178.09;10541339;28;20044;-71
2023/03/30 22:54:28;;;;;;;1.98;0.50;;;;;;;10.99;81.72;99174.38;10540542;28;20059;-71
2023/03/30 22:59:30;;;;;;;1.67;0.70;;;;;;;10.88;82.56;99157.41;10541293;28;20047;-71
2023/03/30 23:04:33;;;;;;;2.35;0.73;;;;;;;10.65;84.19;99154.06;10541701;28;20119;-71
2023/03/30 23:09:34;;;;;;;2.53;0.90;;;;;;;10.73;84.08;99151.09;10541340;28;20059;-71
2023/03/30 23:14:36;;;;;;;2.35;0.70;;;;;;;10.68;84.75;99148.66;10541692;28;20143;-71
2023/03/30 23:19:39;;;;;;;1.23;0.55;;;;;;;10.76;84.38;99148.31;10545518;28;20052;-71
2023/03/30 23:24:40;;;;;;;2.35;0.60;;;;;;;10.80;84.29;99136.72;10542946;28;20043;-71
2023/03/30 23:29:42;;;;;;;5.47;1.35;;;;;;;10.80;84.15;99149.84;10543912;28;20468;-72
2023/03/30 23:34:44;;;;;;;3.63;1.05;;;;;;;10.85;83.64;99150.53;10532939;28;20497;-72
2023/03/30 23:39:46;;;;;;;3.05;1.15;;;;;;;11.00;82.42;99144.53;10547984;28;20093;-71
2023/03/30 23:44:48;;;;;;;2.78;0.70;;;;;;;11.04;82.32;99135.56;10548480;28;20119;-71
2023/03/30 23:49:50;;;;;;;2.38;0.73;;;;;;;11.03;81.80;99135.66;10548773;28;20072;-71
2023/03/30 23:54:52;;;;;;;1.90;0.60;;;;;;;11.07;81.37;99121.44;10549289;28;20409;-72